KCWC

Kickapoo Downtown Airport

Wichita Falls, Texas, USA
METAR KCWC 180255Z AUTO 00000KT 10SM CLR 07/04 A3011 RMK AO2 T00660035
Observed Flight Rules
Dec-18 @ 02:55 UTC (14 minutes ago) Visual Flight Rules
Wind Visibility Clouds
Calm 10 miles
  • Clear skies
Temperatures Readings
Current 7°C / 45°F
Dewpoint 4°C / 39°F
Humidity 81%
Altimeter 30.11" Hg
Pressure 1020 hPa
Elevation 305
METAR KCWC 180255Z AUTO 00000KT 10SM CLR 07/04 A3011 RMK AO2 T00660035
Observed Flight Rules
Dec-18 @ 02:55 UTC
(14 minutes ago)
VFR
Wind Visibility
Calm 10 miles
Clouds
  • Clear skies
Temperature Dewpoint
7°C / 45°F 4°C / 39°F
Humidity Altimeter Pressure
81% 30.11" Hg 1020 hPa